Trans Future 8 — 3EZG6 — position and weather

sailwx.info

Track history (hours):
 
Tides and Currents Weather Stations Pressure Air Temp Water Temp Dewpoint Dewpoint Depression Visibility Wind Speed Wind Dir Waves Ship Positions

Trans Future 8

Last reported at 2017-Dec-11 15:21 UTC. Time now 2017-Dec-11 19:09 UTC.
Position N 34°17' E 138°22'.

Length 166 m; draft 6 m.

Type: Cargo ship. MMSI: 371320000.

Date/timePositionNaut miles runAvg speedWind from/ knotsBaromVisibWave heightAir tempDewpointWater temp
2017-Dec-11 15:21N 34°17' E 138°22'612.6
2017-Dec-11 14:53N 34°19' E 138°28'512.3
2017-Dec-11 14:30N 34°20' E 138°34'611.5
2017-Dec-11 13:58N 34°23' E 138°41'1311.9
2017-Dec-11 12:53N 34°28' E 138°55'513.5
2017-Dec-11 12:30N 34°30' E 139°01'813.7
2017-Dec-11 11:56N 34°33' E 139°09'613.8
2017-Dec-11 11:29N 34°35' E 139°16'713.9
2017-Dec-11 10:58N 34°38' E 139°24'713.3
2017-Dec-11 10:24N 34°42' E 139°32'716.6
2017-Dec-11 10:00N 34°48' E 139°35'815.8
2017-Dec-11 09:30N 34°55' E 139°39'816.4
2017-Dec-11 09:00N 35°03' E 139°42'815.7
2017-Dec-11 08:30N 35°11' E 139°44'510.2
2017-Dec-11 08:00N 35°15' E 139°46'713.0
2017-Dec-11 07:30N 35°21' E 139°43'611.6
2017-Dec-11 07:00N 35°27' E 139°41'0 0.5
2017-Dec-11 06:29N 35°27' E 139°41'0 0.0
2017-Dec-11 05:59N 35°27' E 139°41'0 0.0
2017-Dec-11 05:29N 35°27' E 139°41'0 0.0
2017-Dec-11 04:59N 35°27' E 139°41'0 0.0
2017-Dec-11 04:29N 35°27' E 139°41'0 0.0
2017-Dec-11 03:59N 35°27' E 139°41'0 0.0
2017-Dec-11 03:29N 35°27' E 139°41'0 0.0
2017-Dec-11 02:59N 35°27' E 139°41'0 0.0
2017-Dec-11 02:29N 35°27' E 139°41'0 0.0
2017-Dec-11 01:57N 35°27' E 139°41'0 0.0
2017-Dec-11 01:29N 35°27' E 139°41'0 0.0
2017-Dec-11 00:59N 35°27' E 139°41'0 0.0
2017-Dec-11 00:29N 35°27' E 139°41'0 0.0
2017-Dec-10 23:59N 35°27' E 139°41'0 0.0
2017-Dec-10 23:29N 35°27' E 139°41'0 0.0
2017-Dec-10 22:56N 35°27' E 139°41'0 0.0
2017-Dec-10 22:29N 35°27' E 139°41'0 0.0
2017-Dec-10 21:59N 35°27' E 139°41'1 1.8
2017-Dec-10 21:30N 35°27' E 139°42'5 9.2
2017-Dec-10 21:00N 35°22' E 139°43'612.0
2017-Dec-10 20:30N 35°17' E 139°46'611.5
2017-Dec-10 20:00N 35°11' E 139°47'510.2
2017-Dec-10 19:30N 35°06' E 139°45'917.5
2017-Dec-10 19:00N 34°58' E 139°41'917.5
2017-Dec-10 18:30N 34°50' E 139°37'917.7
2017-Dec-10 18:00N 34°42' E 139°32'1018.9
2017-Dec-10 17:29N 34°36' E 139°22'1020.5
2017-Dec-10 17:00N 34°32' E 139°12'1121.7
2017-Dec-10 16:30N 34°27' E 138°60'  
2017-Dec-08 07:32N 24°36' E 123°57'014.9
2017-Dec-08 07:30N 24°35' E 123°56'713.6
2017-Dec-08 07:00N 24°32' E 123°50'714.5
2017-Dec-08 06:31N 24°29' E 123°43'714.2
2017-Dec-08 06:00N 24°25' E 123°36'713.2
2017-Dec-08 05:30N 24°20' E 123°31'612.1
2017-Dec-08 05:00N 24°15' E 123°27'612.8
2017-Dec-08 04:30N 24°11' E 123°23'612.7
2017-Dec-08 04:00N 24°06' E 123°18'612.3
2017-Dec-08 03:30N 24°01' E 123°14'612.6
2017-Dec-08 03:01N 23°55' E 123°11'713.6
2017-Dec-08 02:30N 23°49' E 123°09'714.4
2017-Dec-08 02:00N 23°42' E 123°06'  
2017-Dec-02 05:58N 25°03' E 120°52'919.1
2017-Dec-02 05:30N 25°08' E 121°00'917.8
2017-Dec-02 05:00N 25°13' E 121°09'714.1
2017-Dec-02 04:30N 25°15' E 121°16'815.1
2017-Dec-02 04:00N 25°09' E 121°21'2 4.1
2017-Dec-02 03:31N 25°10' E 121°24'0 0.0
2017-Dec-02 03:00N 25°10' E 121°24'0 0.0
2017-Dec-02 02:30N 25°10' E 121°24'0 0.0
2017-Dec-02 02:00N 25°10' E 121°24'0 0.0
2017-Dec-02 01:31N 25°10' E 121°24'0 0.0
2017-Dec-02 00:42N 25°10' E 121°24'0 0.0
2017-Dec-02 00:15N 25°10' E 121°24'0 0.0
2017-Dec-01 23:39N 25°10' E 121°24'0 0.4
2017-Dec-01 23:30N 25°10' E 121°24'3 5.7
2017-Dec-01 22:59N 25°10' E 121°20'4 8.5
2017-Dec-01 22:30N 25°12' E 121°17'4 7.4
2017-Dec-01 22:00N 25°14' E 121°14'5 9.4
2017-Dec-01 21:30N 25°19' E 121°16'  
Track history (hours):
 
Tides and Currents Weather Stations Pressure Air Temp Water Temp Dewpoint Dewpoint Depression Visibility Wind Speed Wind Dir Waves Ship Positions

Trans Future 8

Last reported at 2017-Dec-11 15:21 UTC. Time now 2017-Dec-11 19:09 UTC.
Position N 34°17' E 138°22'.

Length 166 m; draft 6 m.

Type: Cargo ship. MMSI: 371320000.

Date/timePositionNaut miles runAvg speedWind from/ knotsBaromVisibWave heightAir tempDewpointWater temp
2017-Dec-11 15:21N 34°17' E 138°22'612.6
2017-Dec-11 14:53N 34°19' E 138°28'512.3
2017-Dec-11 14:30N 34°20' E 138°34'611.5
2017-Dec-11 13:58N 34°23' E 138°41'1311.9
2017-Dec-11 12:53N 34°28' E 138°55'513.5
2017-Dec-11 12:30N 34°30' E 139°01'813.7
2017-Dec-11 11:56N 34°33' E 139°09'613.8
2017-Dec-11 11:29N 34°35' E 139°16'713.9
2017-Dec-11 10:58N 34°38' E 139°24'713.3
2017-Dec-11 10:24N 34°42' E 139°32'716.6
2017-Dec-11 10:00N 34°48' E 139°35'815.8
2017-Dec-11 09:30N 34°55' E 139°39'816.4
2017-Dec-11 09:00N 35°03' E 139°42'815.7
2017-Dec-11 08:30N 35°11' E 139°44'510.2
2017-Dec-11 08:00N 35°15' E 139°46'713.0
2017-Dec-11 07:30N 35°21' E 139°43'611.6
2017-Dec-11 07:00N 35°27' E 139°41'0 0.5
2017-Dec-11 06:29N 35°27' E 139°41'0 0.0
2017-Dec-11 05:59N 35°27' E 139°41'0 0.0
2017-Dec-11 05:29N 35°27' E 139°41'0 0.0
2017-Dec-11 04:59N 35°27' E 139°41'0 0.0
2017-Dec-11 04:29N 35°27' E 139°41'0 0.0
2017-Dec-11 03:59N 35°27' E 139°41'0 0.0
2017-Dec-11 03:29N 35°27' E 139°41'0 0.0
2017-Dec-11 02:59N 35°27' E 139°41'0 0.0
2017-Dec-11 02:29N 35°27' E 139°41'0 0.0
2017-Dec-11 01:57N 35°27' E 139°41'0 0.0
2017-Dec-11 01:29N 35°27' E 139°41'0 0.0
2017-Dec-11 00:59N 35°27' E 139°41'0 0.0
2017-Dec-11 00:29N 35°27' E 139°41'0 0.0
2017-Dec-10 23:59N 35°27' E 139°41'0 0.0
2017-Dec-10 23:29N 35°27' E 139°41'0 0.0
2017-Dec-10 22:56N 35°27' E 139°41'0 0.0
2017-Dec-10 22:29N 35°27' E 139°41'0 0.0
2017-Dec-10 21:59N 35°27' E 139°41'1 1.8
2017-Dec-10 21:30N 35°27' E 139°42'5 9.2
2017-Dec-10 21:00N 35°22' E 139°43'612.0
2017-Dec-10 20:30N 35°17' E 139°46'611.5
2017-Dec-10 20:00N 35°11' E 139°47'510.2
2017-Dec-10 19:30N 35°06' E 139°45'917.5
2017-Dec-10 19:00N 34°58' E 139°41'917.5
2017-Dec-10 18:30N 34°50' E 139°37'917.7
2017-Dec-10 18:00N 34°42' E 139°32'1018.9
2017-Dec-10 17:29N 34°36' E 139°22'1020.5
2017-Dec-10 17:00N 34°32' E 139°12'1121.7
2017-Dec-10 16:30N 34°27' E 138°60'  
2017-Dec-08 07:32N 24°36' E 123°57'014.9
2017-Dec-08 07:30N 24°35' E 123°56'713.6
2017-Dec-08 07:00N 24°32' E 123°50'714.5
2017-Dec-08 06:31N 24°29' E 123°43'714.2
2017-Dec-08 06:00N 24°25' E 123°36'713.2
2017-Dec-08 05:30N 24°20' E 123°31'612.1
2017-Dec-08 05:00N 24°15' E 123°27'612.8
2017-Dec-08 04:30N 24°11' E 123°23'612.7
2017-Dec-08 04:00N 24°06' E 123°18'612.3
2017-Dec-08 03:30N 24°01' E 123°14'612.6
2017-Dec-08 03:01N 23°55' E 123°11'713.6
2017-Dec-08 02:30N 23°49' E 123°09'714.4
2017-Dec-08 02:00N 23°42' E 123°06'  
2017-Dec-02 05:58N 25°03' E 120°52'919.1
2017-Dec-02 05:30N 25°08' E 121°00'917.8
2017-Dec-02 05:00N 25°13' E 121°09'714.1
2017-Dec-02 04:30N 25°15' E 121°16'815.1
2017-Dec-02 04:00N 25°09' E 121°21'2 4.1
2017-Dec-02 03:31N 25°10' E 121°24'0 0.0
2017-Dec-02 03:00N 25°10' E 121°24'0 0.0
2017-Dec-02 02:30N 25°10' E 121°24'0 0.0
2017-Dec-02 02:00N 25°10' E 121°24'0 0.0
2017-Dec-02 01:31N 25°10' E 121°24'0 0.0
2017-Dec-02 00:42N 25°10' E 121°24'0 0.0
2017-Dec-02 00:15N 25°10' E 121°24'0 0.0
2017-Dec-01 23:39N 25°10' E 121°24'0 0.4
2017-Dec-01 23:30N 25°10' E 121°24'3 5.7
2017-Dec-01 22:59N 25°10' E 121°20'4 8.5
2017-Dec-01 22:30N 25°12' E 121°17'4 7.4
2017-Dec-01 22:00N 25°14' E 121°14'5 9.4
2017-Dec-01 21:30N 25°19' E 121°16'  

Dump ship's entire track history